Subpeak Weather - Last 24 Hours


View Last Hour    View Last 24 Hours

Time
Avg. Air Temp
Dew Point
Avg. Rel Humidity
Avg. 2 Min Wind Speed
Max Gust Velocity
MGV Time
MGV Direction
Avg. Spot Wind Velocity
2014-10-20 02:00:004° C-2° C63%31 km/h50 km/h2014-10-20 01:57:20SE29 km/h
2014-10-20 01:00:004° C-2° C66%20 km/h46 km/h2014-10-20 00:13:50SE25 km/h
2014-10-20 00:00:004° C-2° C67%29 km/h59 km/h2014-10-19 23:06:20S30 km/h
2014-10-19 23:00:004° C-1° C69%29 km/h59 km/h2014-10-19 22:51:00S33 km/h
2014-10-19 22:00:004° C-1° C68%28 km/h51 km/h2014-10-19 21:56:40S27 km/h
2014-10-19 21:00:005° C-1° C69%22 km/h52 km/h2014-10-19 20:28:30SE22 km/h
2014-10-19 20:00:005° C-1° C69%19 km/h52 km/h2014-10-19 19:35:40S25 km/h
2014-10-19 19:00:005° C-0° C71%25 km/h55 km/h2014-10-19 18:02:40S32 km/h
2014-10-19 18:00:005° C-0° C71%41 km/h54 km/h2014-10-19 17:43:00S32 km/h
2014-10-19 17:00:005° C-0° C71%24 km/h44 km/h2014-10-19 16:49:50SE23 km/h
2014-10-19 16:00:005° C-0° C72%27 km/h40 km/h2014-10-19 15:54:00S23 km/h
2014-10-19 15:00:004° C0° C75%22 km/h33 km/h2014-10-19 14:40:50SE16 km/h
2014-10-19 14:00:004° C-0° C74%16 km/h40 km/h2014-10-19 13:42:50SE21 km/h
2014-10-19 13:00:003° C-0° C76%16 km/h43 km/h2014-10-19 12:04:30S22 km/h
2014-10-19 12:00:003° C-1° C75%23 km/h42 km/h2014-10-19 11:51:20S26 km/h
2014-10-19 11:00:002° C-2° C79%32 km/h46 km/h2014-10-19 10:20:10SE27 km/h
2014-10-19 10:00:002° C-1° C82%21 km/h55 km/h2014-10-19 09:29:20S36 km/h
2014-10-19 09:00:001° C-1° C80%38 km/h47 km/h2014-10-19 08:43:30S28 km/h
2014-10-19 08:00:001° C-2° C80%20 km/h50 km/h2014-10-19 07:10:20SE27 km/h
2014-10-19 07:00:001° C-2° C80%33 km/h51 km/h2014-10-19 06:58:50S27 km/h
2014-10-19 06:00:001° C-2° C80%22 km/h39 km/h2014-10-19 05:26:10SE23 km/h
2014-10-19 05:00:001° C-2° C80%26 km/h37 km/h2014-10-19 04:41:30S25 km/h
2014-10-19 04:00:001° C-2° C80%18 km/h41 km/h2014-10-19 03:02:40SE21 km/h
2014-10-19 03:00:001° C-2° C80%15 km/h43 km/h2014-10-19 02:42:50NE23 km/h